Viroqua, WI (54665)

11:28 PM CDT on May 25, 2017 (GMT -0500)
Serendipity Golf Course | | Change Station
Active Advisory: Flood Warning

Elev 817 ft 43.58 °N, 90.77 °W | Updated 0 second ago

Scattered Clouds
Scattered Clouds
52.9 °F
Feels Like 52.9 °F
N
0.0
Wind Variable Wind from SE
Gusts 0.0 mph

Today
High -- | Low -- °F
--% Chance of Precip.
Yesterday
High -- | Low -- °F
Precip. -- in
Pressure 29.74 in
Visibility 10.0 miles
Clouds Scattered Clouds 11000 ft
Dew Point 52 °F
Humidity 96%
Rainfall 0.00 in
Snow Depth Not available.
5:29 AM 8:32 PM
New Moon, 0% visible
METAR KY51 260415Z AUTO 36004KT 10SM SCT110 16/11 A2974 RMK AO1 T01580114
Pressure 29.74 in
Visibility 10.0 miles
Clouds Scattered Clouds 11000 ft
Dew Point 52 °F
Humidity 96%
Rainfall 0.00 in
Snow Depth Not available.
5:29 AM 8:32 PM
New Moon, 0% visible
METAR KY51 260415Z AUTO 36004KT 10SM SCT110 16/11 A2974 RMK AO1 T01580114

Get Your Daily Forecast Email!

Thanks for signing up!

Be on the lookout for a verification email in your inbox.

You'll start receiving severe weather alerts in your inbox..

×

10-Day Weather Forecast

Almanac

Astronomy

May. 25, 2017 Rise Set
Actual Time
Civil Twilight
Nautical Twilight
Astronomical Twilight
Moon
Length of Visible Light
Length of Day
Tomorrow will be .
, % of the Moon is Illuminated

Today's Extremes

State Highs State Lows

Community

WunderPhotos

Category 6

Welcome to Category 6. This is the collective home for Weather Underground's featured writeups by Dr. Jeff Masters (right), Bob Henson (left), Chris Burt, and other regular contributors.

Nearby

Air Quality

  Air Quality AQ Index Pollutant
Not available.

Snow Depth

Station Depth Elevation

Earthquake Activity

City Distance Mag. Time & Date
Minimum magnitude displayed is 2.5.

Coastal Water Temperatures

Place Temperature

Stations

Nearby Weather Stations

Station Location Temp. Windchill Dew Point Humidity Wind Precip. Elev Updated Type
                   

Watches & Warnings

Flood Warning
Issued: 7:56 PM CDT May. 25, 2017 – National Weather Service

The Flood Warning continues for
the Mississippi River at La Crosse.
* Until late Sunday night... or until the warning is cancelled.
* At 7:15 PM Thursday the stage was 12.3 feet.
* Flood stage is 12.0 feet.
* Minor flooding is occurring and minor flooding is forecast.
* Forecast... the river will continue rising to near 12.4 feet by
Friday morning. The river will fall below flood stage Sunday
morning.
* Impact... at 12.0 feet... Pettibone campground and RV park is flooded.
Road access to the north end of the Shore Acres development is
impacted by flooding. Some lowland flooding occurs in other areas
near the river.


Lat... Lon 4401 9142 4388 9120 4357 9122 4361 9127 4399 9145